Time;durP1;ratioP1;P1;durP2;ratioP2;P2;SDS_P1;SDS_P2;PMS_P1;PMS_P2;Temp;Humidity;BMP_temperature;BMP_pressure;BME280_temperature;BME280_humidity;BME280_pressure;Samples;Min_cycle;Max_cycle;Signal;HPM_P1;HPM_P2
2022/04/05 00:02:17;;;;;;;14.43;4.10;;;8.20;99.90;;;;;;5100733;28;20209;-69
2022/04/05 00:04:44;;;;;;;19.95;5.10;;;8.10;99.90;;;;;;5112646;28;20220;-68
2022/04/05 00:07:12;;;;;;;11.65;3.58;;;8.10;99.90;;;;;;5094412;28;20559;-67
2022/04/05 00:09:40;;;;;;;10.52;2.97;;;8.10;99.90;;;;;;5092814;28;20661;-68
2022/04/05 00:12:07;;;;;;;11.65;3.42;;;8.00;99.90;;;;;;5094212;28;20217;-68
2022/04/05 00:14:35;;;;;;;11.52;2.80;;;8.00;99.90;;;;;;5093137;28;20307;-68
2022/04/05 00:17:02;;;;;;;6.70;2.47;;;8.10;99.90;;;;;;5093306;28;20655;-68
2022/04/05 00:19:30;;;;;;;9.45;2.55;;;8.10;99.90;;;;;;5106288;28;20204;-70
2022/04/05 00:21:57;;;;;;;7.55;2.35;;;8.10;99.90;;;;;;5105988;28;20209;-69
2022/04/05 00:24:25;;;;;;;11.50;2.92;;;8.00;99.90;;;;;;5099707;28;20227;-68
2022/04/05 00:26:53;;;;;;;8.80;3.42;;;8.00;99.90;;;;;;5093365;28;20209;-67
2022/04/05 00:29:22;;;;;;;16.10;2.50;;;8.00;99.90;;;;;;5106798;28;20207;-68
2022/04/05 00:31:49;;;;;;;17.23;2.42;;;8.00;99.90;;;;;;5107923;28;20598;-68
2022/04/05 00:34:16;;;;;;;9.25;4.38;;;8.00;99.90;;;;;;5100120;27;20225;-68
2022/04/05 00:36:43;;;;;;;10.63;3.15;;;8.00;99.90;;;;;;5102667;28;20557;-67
2022/04/05 00:39:10;;;;;;;18.45;3.75;;;8.00;99.90;;;;;;5104578;28;20204;-69
2022/04/05 00:41:38;;;;;;;8.30;3.50;;;8.00;99.90;;;;;;5091391;28;20288;-67
2022/04/05 00:44:05;;;;;;;11.52;2.80;;;7.80;99.90;;;;;;5092756;28;20529;-67
2022/04/05 00:46:32;;;;;;;9.15;4.00;;;7.80;99.90;;;;;;5102933;28;20207;-69
2022/04/05 00:49:01;;;;;;;11.13;2.75;;;7.80;99.90;;;;;;5104333;28;20608;-68
2022/04/05 00:51:28;;;;;;;14.07;3.47;;;7.80;99.90;;;;;;5102281;28;20225;-69
2022/04/05 00:53:58;;;;;;;11.40;2.50;;;7.90;99.90;;;;;;5109214;28;20223;-69
2022/04/05 00:56:28;;;;;;;9.88;3.13;;;7.90;99.90;;;;;;5096997;28;20960;-70
2022/04/05 00:59:00;;;;;;;8.10;3.40;;;7.90;99.90;;;;;;5095505;28;20216;-65
2022/04/05 01:01:29;;;;;;;11.75;3.53;;;7.90;99.90;;;;;;5104596;28;20199;-67
2022/04/05 01:03:57;;;;;;;11.73;4.13;;;8.00;99.90;;;;;;5101007;28;20757;-68
2022/04/05 01:06:26;;;;;;;8.30;2.88;;;8.00;99.90;;;;;;5101150;28;20201;-67
2022/04/05 01:08:54;;;;;;;14.43;3.22;;;8.00;99.90;;;;;;5101645;28;20211;-70
2022/04/05 01:11:21;;;;;;;10.85;3.50;;;8.00;99.90;;;;;;5099679;28;20217;-68
2022/04/05 01:13:48;;;;;;;14.68;3.60;;;8.00;99.90;;;;;;5110755;28;20586;-66
2022/04/05 01:16:18;;;;;;;8.02;2.85;;;7.90;99.90;;;;;;5113618;28;20612;-69
2022/04/05 01:18:45;;;;;;;10.77;4.03;;;7.90;99.90;;;;;;5113602;28;20222;-69
2022/04/05 01:21:14;;;;;;;8.73;3.13;;;7.90;99.90;;;;;;5106966;28;20204;-67
2022/04/05 01:24:05;;;;;;;13.15;4.70;;;7.80;99.90;;;;;;5106596;28;20225;-69
2022/04/05 01:26:42;;;;;;;14.98;3.53;;;7.80;99.90;;;;;;5092802;28;20209;-66
2022/04/05 01:29:09;;;;;;;8.73;2.60;;;7.80;99.90;;;;;;5093027;28;20291;-67
2022/04/05 01:31:40;;;;;;;10.48;2.80;;;7.70;99.90;;;;;;5092284;28;20224;-68
2022/04/05 01:34:07;;;;;;;10.77;2.00;;;7.60;99.90;;;;;;5105139;28;20558;-69
2022/04/05 01:36:34;;;;;;;10.70;2.33;;;7.60;99.90;;;;;;5111840;28;20288;-69
2022/04/05 01:39:02;;;;;;;25.40;2.80;;;7.60;99.90;;;;;;5099906;28;20210;-69
2022/04/05 01:41:29;;;;;;;5.55;2.40;;;7.60;99.90;;;;;;5091534;28;20212;-68
2022/04/05 01:43:56;;;;;;;9.50;2.22;;;7.50;99.90;;;;;;5093506;28;20230;-68
2022/04/05 01:46:23;;;;;;;5.28;1.83;;;7.50;99.90;;;;;;5101912;28;20658;-69
2022/04/05 01:48:50;;;;;;;7.60;2.22;;;7.50;99.90;;;;;;5101772;28;20219;-68
2022/04/05 01:51:18;;;;;;;9.13;2.75;;;7.50;99.90;;;;;;5103538;28;20211;-67
2022/04/05 01:53:44;;;;;;;7.68;2.22;;;7.40;99.90;;;;;;5106784;28;20220;-70
2022/04/05 01:56:13;;;;;;;9.13;3.67;;;7.40;99.90;;;;;;5117023;28;20653;-67
2022/04/05 01:58:40;;;;;;;6.20;2.03;;;7.40;99.90;;;;;;5116741;28;20663;-67
2022/04/05 02:01:07;;;;;;;7.70;2.30;;;7.30;99.90;;;;;;5116250;28;20846;-67
2022/04/05 02:03:34;;;;;;;4.20;1.75;;;7.30;99.90;;;;;;5116612;28;20213;-69
2022/04/05 02:06:01;;;;;;;6.07;1.55;;;7.30;99.90;;;;;;5116751;28;20290;-69
2022/04/05 02:08:28;;;;;;;6.20;2.08;;;7.20;99.90;;;;;;5117139;28;20213;-69
2022/04/05 02:10:55;;;;;;;20.15;3.08;;;7.30;99.90;;;;;;5116013;28;20594;-69
2022/04/05 02:13:23;;;;;;;9.70;2.55;;;7.30;99.90;;;;;;5116110;28;20214;-66
2022/04/05 02:15:50;;;;;;;3.88;1.70;;;7.30;99.90;;;;;;5116771;28;20302;-66
2022/04/05 02:18:16;;;;;;;11.82;2.35;;;7.40;99.90;;;;;;5116602;28;20206;-67
2022/04/05 02:20:44;;;;;;;8.95;2.35;;;7.30;99.90;;;;;;5112631;28;20199;-67
2022/04/05 02:23:11;;;;;;;9.05;2.65;;;7.30;99.90;;;;;;5106812;28;20209;-67
2022/04/05 02:25:38;;;;;;;12.43;3.10;;;7.30;99.90;;;;;;5116639;28;20396;-67
2022/04/05 02:28:06;;;;;;;14.68;2.95;;;7.40;99.90;;;;;;5116448;28;20626;-68
2022/04/05 02:30:35;;;;;;;5.90;1.80;;;7.40;99.90;;;;;;5115779;28;20214;-69
2022/04/05 02:33:02;;;;;;;10.65;2.58;;;7.40;99.90;;;;;;5113555;28;20207;-68
2022/04/05 02:35:29;;;;;;;9.65;2.60;;;7.40;99.90;;;;;;5106756;28;20560;-69
2022/04/05 02:37:59;;;;;;;10.20;3.35;;;7.40;99.90;;;;;;5115240;28;20405;-67
2022/04/05 02:40:26;;;;;;;4.88;2.17;;;7.40;99.90;;;;;;5108173;28;20219;-66
2022/04/05 02:42:53;;;;;;;10.30;1.80;;;7.30;99.90;;;;;;5106959;28;20295;-68
2022/04/05 02:45:20;;;;;;;7.70;2.95;;;7.30;99.90;;;;;;5107568;28;20240;-69
2022/04/05 02:47:48;;;;;;;10.23;2.78;;;7.30;99.90;;;;;;5102169;28;20208;-68
2022/04/05 02:50:18;;;;;;;9.05;2.33;;;7.30;99.90;;;;;;5101977;28;20208;-69
2022/04/05 02:52:46;;;;;;;8.65;3.40;;;7.30;99.90;;;;;;5095257;28;20216;-67
2022/04/05 02:55:13;;;;;;;9.02;3.67;;;7.30;99.90;;;;;;5116988;27;20230;-68
2022/04/05 02:57:41;;;;;;;13.23;2.50;;;7.30;99.90;;;;;;5119614;27;20625;-68
2022/04/05 03:00:11;;;;;;;8.45;2.10;;;7.30;99.90;;;;;;5097564;27;20219;-69
2022/04/05 03:02:38;;;;;;;16.15;2.70;;;7.30;99.90;;;;;;5111318;27;20195;-69
2022/04/05 03:05:08;;;;;;;7.55;2.15;;;7.30;99.90;;;;;;5100841;28;20228;-69
2022/04/05 03:07:35;;;;;;;10.93;2.58;;;7.40;99.90;;;;;;5105382;28;20233;-67
2022/04/05 03:10:02;;;;;;;11.50;2.63;;;7.40;99.90;;;;;;5108941;28;20201;-66
2022/04/05 03:12:29;;;;;;;13.13;2.05;;;7.40;99.90;;;;;;5105409;28;20243;-68
2022/04/05 03:14:57;;;;;;;7.82;3.47;;;7.40;99.90;;;;;;5115076;28;20281;-69
2022/04/05 03:17:24;;;;;;;8.85;2.58;;;7.40;99.90;;;;;;5108366;28;20287;-69
2022/04/05 03:19:51;;;;;;;5.15;2.38;;;7.40;99.90;;;;;;5102024;28;20275;-68
2022/04/05 03:22:20;;;;;;;9.23;2.65;;;7.40;99.90;;;;;;5105750;28;20192;-69
2022/04/05 03:24:47;;;;;;;16.15;4.40;;;7.40;99.90;;;;;;5099762;28;20231;-68
2022/04/05 03:27:14;;;;;;;7.80;2.55;;;7.50;99.90;;;;;;5094401;28;20208;-67
2022/04/05 03:29:41;;;;;;;7.07;2.55;;;7.40;99.90;;;;;;5102179;27;20227;-67
2022/04/05 03:32:11;;;;;;;16.95;3.10;;;7.50;99.90;;;;;;5094437;28;20330;-69
2022/04/05 03:34:38;;;;;;;10.93;2.83;;;7.40;99.90;;;;;;5094270;28;20228;-68
2022/04/05 03:37:05;;;;;;;8.48;3.00;;;7.40;99.90;;;;;;5096698;28;20200;-68
2022/04/05 03:39:33;;;;;;;12.63;3.30;;;7.40;99.90;;;;;;5104987;28;20211;-68
2022/04/05 03:42:00;;;;;;;16.42;4.20;;;7.40;99.90;;;;;;5094968;28;20203;-67
2022/04/05 03:44:27;;;;;;;10.82;4.28;;;7.40;99.90;;;;;;5093660;28;20303;-67
2022/04/05 03:46:56;;;;;;;11.75;2.15;;;7.30;99.90;;;;;;5093970;28;20200;-68
2022/04/05 03:49:23;;;;;;;10.55;3.47;;;7.30;99.90;;;;;;5094097;28;20268;-68
2022/04/05 03:51:51;;;;;;;5.07;2.22;;;7.30;99.90;;;;;;5097377;28;20230;-69
2022/04/05 03:54:17;;;;;;;5.97;2.30;;;7.30;99.90;;;;;;5093420;28;20223;-68
2022/04/05 03:56:46;;;;;;;13.75;2.47;;;7.20;99.90;;;;;;5093314;28;20206;-67
2022/04/05 03:59:13;;;;;;;6.45;2.05;;;7.20;99.90;;;;;;5093677;28;20214;-67
2022/04/05 04:01:39;;;;;;;11.27;2.13;;;7.10;99.90;;;;;;5096715;27;20196;-67
2022/04/05 04:04:08;;;;;;;9.70;1.70;;;7.10;99.90;;;;;;5097010;27;20314;-68
2022/04/05 04:06:35;;;;;;;7.70;2.50;;;7.00;99.90;;;;;;5093706;28;20607;-69
2022/04/05 04:09:01;;;;;;;7.20;2.00;;;7.00;99.90;;;;;;5093705;28;20559;-69
2022/04/05 04:11:29;;;;;;;3.65;1.70;;;7.00;99.90;;;;;;5092615;28;20834;-69
2022/04/05 04:13:58;;;;;;;11.38;2.25;;;6.90;99.90;;;;;;5103366;28;20612;-69
2022/04/05 04:16:25;;;;;;;12.52;1.83;;;6.80;99.90;;;;;;5095667;28;20200;-69
2022/04/05 04:18:52;;;;;;;4.80;1.70;;;6.90;99.90;;;;;;5093794;28;20204;-67
2022/04/05 04:21:19;;;;;;;9.88;1.85;;;6.90;99.90;;;;;;5097786;28;20192;-70
2022/04/05 04:23:46;;;;;;;5.43;1.50;;;6.90;99.90;;;;;;5112364;28;20222;-67
2022/04/05 04:26:13;;;;;;;6.97;1.88;;;6.90;99.90;;;;;;5100084;28;20190;-71
2022/04/05 04:28:39;;;;;;;5.00;1.45;;;6.90;99.90;;;;;;5102161;28;20290;-69
2022/04/05 04:31:08;;;;;;;14.52;2.00;;;6.90;99.90;;;;;;5097147;28;20202;-69
2022/04/05 04:33:35;;;;;;;16.33;2.20;;;6.90;99.90;;;;;;5101293;28;20198;-67
2022/04/05 04:36:02;;;;;;;11.52;3.35;;;6.90;99.90;;;;;;5108369;28;20286;-68
2022/04/05 04:38:29;;;;;;;8.82;2.72;;;6.90;99.90;;;;;;5102096;28;20198;-72
2022/04/05 04:40:56;;;;;;;4.43;1.65;;;6.90;99.90;;;;;;5091977;28;20294;-68
2022/04/05 04:43:24;;;;;;;11.27;2.38;;;6.90;99.90;;;;;;5092356;28;20202;-68
2022/04/05 04:45:51;;;;;;;8.75;1.65;;;6.90;99.90;;;;;;5093251;28;20205;-68
2022/04/05 04:48:19;;;;;;;12.70;1.95;;;6.90;99.90;;;;;;5105040;28;20205;-67
2022/04/05 04:50:47;;;;;;;6.85;2.28;;;6.90;99.90;;;;;;5105541;28;20318;-70
2022/04/05 04:53:14;;;;;;;11.63;2.22;;;6.90;99.90;;;;;;5110359;28;20205;-70
2022/04/05 04:55:41;;;;;;;11.35;2.35;;;7.00;99.90;;;;;;5092657;28;20300;-70
2022/04/05 04:58:08;;;;;;;12.25;2.40;;;7.00;99.90;;;;;;5093050;28;20309;-70
2022/04/05 05:00:35;;;;;;;6.63;2.13;;;7.00;99.90;;;;;;5099308;28;20964;-68
2022/04/05 05:03:02;;;;;;;11.13;1.65;;;7.00;99.90;;;;;;5107133;28;20210;-69
2022/04/05 05:05:30;;;;;;;15.02;4.35;;;7.00;99.90;;;;;;5098127;28;20702;-68
2022/04/05 05:07:57;;;;;;;13.27;3.08;;;7.00;99.90;;;;;;5092602;28;20617;-68
2022/04/05 05:10:24;;;;;;;16.52;2.75;;;6.90;99.90;;;;;;5091613;28;20647;-70
2022/04/05 05:12:51;;;;;;;16.15;5.43;;;6.90;99.90;;;;;;5092146;28;20701;-69
2022/04/05 05:15:21;;;;;;;10.40;2.55;;;6.90;99.90;;;;;;5093039;28;20222;-68
2022/04/05 05:17:49;;;;;;;9.57;3.00;;;6.90;99.90;;;;;;5092752;28;20595;-69
2022/04/05 05:20:16;;;;;;;9.93;2.70;;;7.00;99.90;;;;;;5091981;28;20226;-70
2022/04/05 05:22:45;;;;;;;11.38;2.20;;;7.00;99.90;;;;;;5107307;28;20198;-68
2022/04/05 05:25:12;;;;;;;12.48;2.40;;;7.00;99.90;;;;;;5105155;28;20235;-71
2022/04/05 05:27:41;;;;;;;4.32;2.10;;;7.00;99.90;;;;;;5096643;28;20209;-70
2022/04/05 05:30:13;;;;;;;5.50;1.85;;;7.10;99.90;;;;;;5102242;27;20235;-66
2022/04/05 05:32:45;;;;;;;10.45;2.65;;;7.10;99.90;;;;;;5106250;27;20302;-67
2022/04/05 05:35:15;;;;;;;14.60;3.97;;;7.10;99.90;;;;;;5096047;28;20727;-67
2022/04/05 05:37:42;;;;;;;8.55;2.15;;;7.20;99.90;;;;;;5111314;28;20199;-72
2022/04/05 05:40:11;;;;;;;8.05;2.17;;;7.30;99.90;;;;;;5107015;28;20660;-68
2022/04/05 05:42:51;;;;;;;6.82;2.50;;;7.30;99.90;;;;;;5108146;28;20203;-71
2022/04/05 05:45:19;;;;;;;7.10;3.15;;;7.30;99.90;;;;;;5090077;28;20760;-67
2022/04/05 05:47:47;;;;;;;12.93;3.17;;;7.30;99.90;;;;;;5111847;28;20231;-68
2022/04/05 05:50:14;;;;;;;21.98;4.75;;;7.40;99.90;;;;;;5104593;28;20219;-68
2022/04/05 05:52:42;;;;;;;9.13;2.50;;;7.40;99.90;;;;;;5109463;28;20722;-69
2022/04/05 05:55:11;;;;;;;14.30;3.10;;;7.40;99.90;;;;;;5106804;28;20231;-71
2022/04/05 05:57:38;;;;;;;12.18;2.30;;;7.30;99.90;;;;;;5101386;28;20217;-68
2022/04/05 06:00:08;;;;;;;8.68;2.75;;;7.50;99.90;;;;;;5110293;28;20233;-68
2022/04/05 06:02:38;;;;;;;11.38;2.80;;;7.50;99.90;;;;;;5099749;27;20291;-70
2022/04/05 06:05:05;;;;;;;9.95;3.40;;;7.50;99.90;;;;;;5111526;28;20743;-70
2022/04/05 06:07:34;;;;;;;10.68;2.53;;;7.40;99.90;;;;;;5105819;28;20206;-69
2022/04/05 06:10:00;;;;;;;15.05;5.55;;;7.50;99.90;;;;;;5094952;28;20609;-69
2022/04/05 06:12:29;;;;;;;9.20;2.58;;;7.50;99.90;;;;;;5095694;28;20319;-68
2022/04/05 06:14:56;;;;;;;11.25;3.00;;;7.50;99.90;;;;;;5095436;28;20235;-68
2022/04/05 06:17:24;;;;;;;13.02;3.97;;;7.60;99.90;;;;;;5103479;28;20207;-69
2022/04/05 06:19:51;;;;;;;11.80;3.20;;;7.70;99.90;;;;;;5108988;28;20291;-68
2022/04/05 06:22:18;;;;;;;9.55;2.65;;;7.70;99.90;;;;;;5096369;28;20236;-67
2022/04/05 06:24:46;;;;;;;10.60;3.13;;;7.90;99.90;;;;;;5095441;28;20300;-67
2022/04/05 06:27:13;;;;;;;10.18;2.70;;;8.00;99.90;;;;;;5095531;28;20229;-70
2022/04/05 06:29:41;;;;;;;6.05;2.05;;;8.10;99.90;;;;;;5094586;28;20351;-70
2022/04/05 06:32:08;;;;;;;9.38;2.58;;;8.30;99.90;;;;;;5095643;28;20299;-68
2022/04/05 06:34:35;;;;;;;11.23;2.90;;;8.40;99.90;;;;;;5097940;28;20219;-71
2022/04/05 06:37:02;;;;;;;7.18;3.15;;;8.60;99.90;;;;;;5095075;28;20210;-71
2022/04/05 06:39:29;;;;;;;13.57;3.17;;;8.70;99.90;;;;;;5102496;28;20194;-70
2022/04/05 06:41:56;;;;;;;9.57;2.70;;;8.80;99.90;;;;;;5100248;28;20206;-71
2022/04/05 06:44:23;;;;;;;14.90;3.75;;;8.90;99.90;;;;;;5103003;28;20222;-68
2022/04/05 06:46:51;;;;;;;10.07;2.72;;;8.90;99.90;;;;;;5115673;28;20209;-67
2022/04/05 06:49:18;;;;;;;8.07;2.80;;;8.90;99.90;;;;;;5107965;28;20200;-69
2022/04/05 06:51:45;;;;;;;7.88;2.17;;;9.00;99.90;;;;;;5094501;28;20198;-70
2022/04/05 06:54:12;;;;;;;9.18;2.25;;;9.10;99.90;;;;;;5094532;28;20309;-67
2022/04/05 06:56:39;;;;;;;17.27;3.50;;;9.10;99.90;;;;;;5094970;28;20240;-70
2022/04/05 06:59:05;;;;;;;11.88;2.70;;;8.90;99.90;;;;;;5095030;28;20281;-70
2022/04/05 07:01:33;;;;;;;11.80;3.85;;;8.90;99.90;;;;;;5095524;28;20574;-69
2022/04/05 07:04:03;;;;;;;10.82;2.72;;;8.90;99.90;;;;;;5108213;27;20217;-69
2022/04/05 07:06:30;;;;;;;7.25;2.67;;;9.10;99.90;;;;;;5115191;28;20673;-71
2022/04/05 07:08:57;;;;;;;13.07;2.80;;;9.30;99.90;;;;;;5105549;28;20214;-66
2022/04/05 07:11:23;;;;;;;7.40;2.15;;;9.30;99.90;;;;;;5098329;28;20208;-70
2022/04/05 07:13:51;;;;;;;10.25;2.58;;;9.10;99.90;;;;;;5114915;28;20298;-70
2022/04/05 07:16:18;;;;;;;12.38;4.45;;;9.20;99.90;;;;;;5113651;28;20201;-69
2022/04/05 07:18:45;;;;;;;11.07;2.95;;;9.30;99.90;;;;;;5113658;28;20202;-70
2022/04/05 07:21:13;;;;;;;10.95;3.17;;;9.30;99.90;;;;;;5105676;28;20556;-68
2022/04/05 07:23:40;;;;;;;13.82;3.70;;;9.30;99.90;;;;;;5093924;28;20218;-68
2022/04/05 07:26:08;;;;;;;14.40;3.72;;;9.20;99.90;;;;;;5094282;28;20584;-66
2022/04/05 07:28:35;;;;;;;11.60;2.92;;;9.40;99.90;;;;;;5100244;28;20208;-69
2022/04/05 07:31:03;;;;;;;14.98;3.38;;;9.40;99.90;;;;;;5099742;28;20288;-69
2022/04/05 07:33:30;;;;;;;14.02;3.25;;;9.40;99.90;;;;;;5101515;28;20206;-72
2022/04/05 07:35:57;;;;;;;7.72;1.85;;;9.60;99.90;;;;;;5112262;28;20300;-69
2022/04/05 07:38:25;;;;;;;10.40;2.40;;;9.80;99.90;;;;;;5093918;28;20202;-71
2022/04/05 07:40:53;;;;;;;12.65;2.55;;;9.90;99.90;;;;;;5098823;28;20221;-67
2022/04/05 07:43:21;;;;;;;9.55;3.15;;;10.00;99.90;;;;;;5114023;28;20216;-68
2022/04/05 07:45:49;;;;;;;11.25;2.50;;;10.00;99.90;;;;;;5094258;28;20488;-69
2022/04/05 07:48:17;;;;;;;7.03;2.25;;;10.00;99.90;;;;;;5107516;28;20208;-70
2022/04/05 07:50:44;;;;;;;8.00;2.80;;;10.10;99.90;;;;;;5093038;28;20191;-69
2022/04/05 07:53:11;;;;;;;8.30;2.38;;;10.20;99.90;;;;;;5093228;28;20249;-70
2022/04/05 07:55:39;;;;;;;10.23;2.72;;;10.40;99.90;;;;;;5093768;28;20546;-69
2022/04/05 07:58:06;;;;;;;13.77;2.33;;;10.80;99.90;;;;;;5095772;28;20201;-70
2022/04/05 08:00:33;;;;;;;8.15;1.88;;;11.10;99.90;;;;;;5103974;28;20200;-69
2022/04/05 08:03:00;;;;;;;15.00;2.28;;;11.30;99.90;;;;;;5102891;28;20537;-68
2022/04/05 08:05:27;;;;;;;8.20;2.50;;;11.20;99.90;;;;;;5113743;28;20218;-67
2022/04/05 08:07:55;;;;;;;10.05;2.20;;;11.20;99.90;;;;;;5097441;28;20202;-68
2022/04/05 08:10:23;;;;;;;5.95;2.60;;;10.70;99.90;;;;;;5102037;28;20202;-70
2022/04/05 08:12:51;;;;;;;12.55;2.92;;;10.70;99.90;;;;;;5099781;28;20297;-70
2022/04/05 08:15:20;;;;;;;13.95;3.67;;;10.70;99.90;;;;;;5106730;28;20221;-69
2022/04/05 08:17:48;;;;;;;9.10;4.60;;;10.90;99.90;;;;;;5108800;28;20293;-70
2022/04/05 08:20:16;;;;;;;10.77;2.17;;;12.10;99.90;;;;;;5095515;28;20204;-68
2022/04/05 08:22:44;;;;;;;16.27;2.22;;;12.40;99.90;;;;;;5106565;28;20624;-68
2022/04/05 08:25:14;;;;;;;7.72;2.97;;;12.90;99.90;;;;;;5105191;28;20234;-69
2022/04/05 08:27:41;;;;;;;14.73;2.67;;;12.90;99.90;;;;;;5098742;28;20229;-70
2022/04/05 08:30:10;;;;;;;7.57;2.03;;;12.50;99.90;;;;;;5093153;28;20322;-70
2022/04/05 08:32:42;;;;;;;7.15;2.28;;;12.30;99.90;;;;;;5105709;28;20216;-70
2022/04/05 08:35:10;;;;;;;9.75;2.88;;;12.20;99.90;;;;;;5105659;28;20228;-69
2022/04/05 08:37:37;;;;;;;17.02;2.60;;;12.30;99.90;;;;;;5092736;28;20204;-68
2022/04/05 08:40:06;;;;;;;10.27;1.92;;;12.10;99.90;;;;;;5105368;28;20199;-71
2022/04/05 08:42:33;;;;;;;12.23;2.80;;;12.20;99.90;;;;;;5097174;28;20206;-69
2022/04/05 08:45:04;;;;;;;10.50;2.95;;;12.00;99.90;;;;;;5109913;28;20222;-70
2022/04/05 08:47:34;;;;;;;6.95;2.75;;;11.90;99.90;;;;;;5112369;28;20725;-69
2022/04/05 08:50:03;;;;;;;6.20;2.65;;;11.90;99.90;;;;;;5099203;28;20204;-70
2022/04/05 08:52:30;;;;;;;6.90;2.38;;;12.00;99.90;;;;;;5094137;28;20286;-72
2022/04/05 08:54:57;;;;;;;11.82;2.70;;;11.90;99.90;;;;;;5097907;28;20316;-70
2022/04/05 08:57:24;;;;;;;7.75;3.15;;;11.90;99.90;;;;;;5099946;28;20289;-69
2022/04/05 08:59:51;;;;;;;10.15;1.95;;;11.70;99.90;;;;;;5092328;28;20202;-67
2022/04/05 09:02:25;;;;;;;9.75;3.90;;;11.60;99.90;;;;;;5098310;27;20198;-70
2022/04/05 09:04:54;;;;;;;10.75;2.67;;;11.50;99.90;;;;;;5095558;28;20730;-68
2022/04/05 09:07:23;;;;;;;8.07;2.40;;;11.30;99.90;;;;;;5103546;28;20219;-69
2022/04/05 09:10:12;;;;;;;12.70;2.67;;;11.40;99.90;;;;;;5105457;28;20207;-71
2022/04/05 09:12:40;;;;;;;9.23;2.60;;;11.30;99.90;;;;;;5092213;28;20218;-69
2022/04/05 09:15:23;;;;;;;7.32;2.70;;;11.20;99.90;;;;;;5092635;28;20229;-69
2022/04/05 09:17:50;;;;;;;7.88;3.05;;;11.30;99.90;;;;;;5108759;28;20259;-70
2022/04/05 09:20:20;;;;;;;9.75;3.33;;;11.20;99.90;;;;;;5111535;28;20295;-70
2022/04/05 09:22:47;;;;;;;6.32;2.80;;;11.30;99.90;;;;;;5096272;28;20204;-68
2022/04/05 09:25:16;;;;;;;14.15;3.65;;;11.50;99.90;;;;;;5104774;28;20241;-71
2022/04/05 09:27:44;;;;;;;15.38;2.70;;;11.40;99.90;;;;;;5093838;28;20660;-70
2022/04/05 09:30:13;;;;;;;13.20;3.15;;;11.70;99.90;;;;;;5104502;28;20211;-72
2022/04/05 09:32:43;;;;;;;8.02;3.53;;;12.10;99.90;;;;;;5092550;28;20605;-69
2022/04/05 09:35:11;;;;;;;7.82;2.75;;;12.40;99.90;;;;;;5104207;28;20243;-70
2022/04/05 09:37:40;;;;;;;8.63;3.95;;;12.50;99.90;;;;;;5092246;28;20308;-70
2022/04/05 09:40:19;;;;;;;12.10;3.15;;;12.40;99.90;;;;;;5091631;28;20220;-69
2022/04/05 09:43:04;;;;;;;9.70;2.85;;;12.50;99.90;;;;;;5092185;28;20287;-69
2022/04/05 09:45:45;;;;;;;10.73;3.15;;;12.40;99.90;;;;;;5098024;28;20312;-69
2022/04/05 09:48:12;;;;;;;9.57;3.35;;;12.60;99.90;;;;;;5098422;28;20669;-71
2022/04/05 09:51:00;;;;;;;8.85;3.53;;;12.80;99.90;;;;;;5091492;28;20609;-71
2022/04/05 09:53:29;;;;;;;15.25;2.70;;;13.00;99.90;;;;;;5104792;28;20263;-70
2022/04/05 09:56:03;;;;;;;11.10;3.70;;;12.80;99.90;;;;;;5092118;28;20209;-70
2022/04/05 09:58:31;;;;;;;8.80;3.13;;;12.90;99.90;;;;;;5098620;28;20200;-69
2022/04/05 10:01:08;;;;;;;8.18;3.88;;;12.90;99.90;;;;;;5104944;28;20216;-71
2022/04/05 10:03:36;;;;;;;13.35;3.65;;;12.80;99.90;;;;;;5099796;28;20227;-70
2022/04/05 10:06:03;;;;;;;8.65;2.45;;;12.60;99.90;;;;;;5101818;28;20206;-71
2022/04/05 10:08:35;;;;;;;6.50;2.42;;;12.70;99.90;;;;;;5112586;28;20198;-69
2022/04/05 10:11:03;;;;;;;7.35;2.50;;;12.70;99.90;;;;;;5097547;28;20285;-69
2022/04/05 10:13:31;;;;;;;5.82;2.67;;;12.80;99.90;;;;;;5091382;28;20555;-69
2022/04/05 10:16:00;;;;;;;6.95;2.10;;;12.60;99.90;;;;;;5109033;28;20680;-70
2022/04/05 10:18:35;;;;;;;6.25;2.90;;;12.40;99.90;;;;;;5104254;28;20207;-70
2022/04/05 10:21:03;;;;;;;9.43;4.30;;;12.30;99.90;;;;;;5109062;28;20619;-70
2022/04/05 10:23:34;;;;;;;4.00;2.53;;;12.30;99.90;;;;;;5100201;28;20203;-69
2022/04/05 10:26:01;;;;;;;6.78;2.33;;;12.10;99.90;;;;;;5115586;28;20228;-68
2022/04/05 10:28:32;;;;;;;6.90;2.28;;;12.10;99.90;;;;;;5114807;28;20207;-71
2022/04/05 10:31:04;;;;;;;4.20;2.22;;;12.00;99.90;;;;;;5097747;28;20206;-69
2022/04/05 10:33:39;;;;;;;6.28;2.70;;;12.00;99.90;;;;;;5095670;28;20255;-71
2022/04/05 10:36:08;;;;;;;7.32;3.45;;;12.10;99.90;;;;;;5095122;28;20214;-69
2022/04/05 10:38:37;;;;;;;3.85;2.25;;;12.00;99.90;;;;;;5101003;28;20292;-69
2022/04/05 10:41:19;;;;;;;8.45;2.25;;;12.00;99.90;;;;;;5114605;28;20243;-71
2022/04/05 10:43:49;;;;;;;8.52;3.25;;;12.30;99.90;;;;;;5091477;28;20235;-69
2022/04/05 10:46:38;;;;;;;6.70;3.47;;;12.50;99.90;;;;;;5103233;28;20243;-70
2022/04/05 10:49:07;;;;;;;10.63;2.97;;;12.80;99.90;;;;;;5094786;28;20204;-71
2022/04/05 10:52:10;;;;;;;9.13;2.47;;;13.10;99.90;;;;;;5093573;28;20233;-71
2022/04/05 10:54:44;;;;;;;9.75;2.88;;;13.30;99.90;;;;;;5094270;28;20763;-73
2022/04/05 10:57:18;;;;;;;10.20;3.10;;;13.50;99.90;;;;;;5102430;28;20205;-69
2022/04/05 10:59:50;;;;;;;5.97;3.30;;;13.60;99.90;;;;;;5101091;28;20203;-71
2022/04/05 11:02:35;;;;;;;6.45;2.85;;;13.50;99.90;;;;;;5110306;27;20201;-71
2022/04/05 11:05:23;;;;;;;7.10;2.53;;;13.10;99.90;;;;;;5075912;28;20246;-71
2022/04/05 11:08:10;;;;;;;7.00;3.65;;;12.50;99.90;;;;;;5093945;28;20292;-69
2022/04/05 11:10:55;;;;;;;9.40;2.83;;;12.40;99.90;;;;;;5098419;28;20282;-70
2022/04/05 11:13:33;;;;;;;12.88;3.17;;;12.50;99.90;;;;;;5093897;28;20210;-68
2022/04/05 11:16:01;;;;;;;4.88;2.95;;;12.60;99.90;;;;;;5094378;28;20203;-70
2022/04/05 11:18:29;;;;;;;6.20;2.92;;;12.50;99.90;;;;;;5094196;28;20207;-69
2022/04/05 11:20:58;;;;;;;11.45;3.45;;;12.60;99.90;;;;;;5093678;28;20229;-67
2022/04/05 11:23:45;;;;;;;6.18;2.53;;;12.60;99.90;;;;;;5093494;28;20201;-70
2022/04/05 11:26:32;;;;;;;7.65;3.85;;;12.60;99.90;;;;;;5100442;28;20311;-69
2022/04/05 11:29:00;;;;;;;27.33;14.52;;;12.70;99.90;;;;;;5097776;28;20196;-67
2022/04/05 11:31:33;;;;;;;9.68;5.10;;;12.90;99.90;;;;;;5096229;28;20197;-72
2022/04/05 11:34:00;;;;;;;8.20;3.05;;;12.90;99.90;;;;;;5097671;28;20322;-70
2022/04/05 11:36:27;;;;;;;5.25;2.95;;;12.80;99.90;;;;;;5103117;28;20286;-70
2022/04/05 11:38:57;;;;;;;5.07;3.45;;;12.50;99.90;;;;;;5107606;28;20734;-68
2022/04/05 11:41:26;;;;;;;13.55;4.28;;;12.20;99.90;;;;;;5093524;28;20236;-68
2022/04/05 11:43:56;;;;;;;10.68;3.92;;;12.30;99.90;;;;;;5094138;28;20288;-71
2022/04/05 11:46:26;;;;;;;5.10;2.90;;;12.50;99.90;;;;;;5093869;28;20205;-70
2022/04/05 11:48:54;;;;;;;10.25;4.85;;;12.40;99.90;;;;;;5104588;28;20257;-68
2022/04/05 11:51:23;;;;;;;9.98;4.13;;;12.20;99.90;;;;;;5099311;28;20193;-71
2022/04/05 11:53:51;;;;;;;6.88;4.72;;;12.10;99.90;;;;;;5107662;28;20706;-67
2022/04/05 11:56:21;;;;;;;6.13;3.78;;;12.10;99.90;;;;;;5099923;28;20203;-69
2022/04/05 11:58:50;;;;;;;11.60;3.58;;;12.30;99.90;;;;;;5093334;28;20211;-71
2022/04/05 12:01:22;;;;;;;7.82;4.60;;;12.20;99.90;;;;;;5098786;28;20228;-67
2022/04/05 12:03:51;;;;;;;5.40;4.90;;;12.00;99.90;;;;;;5109578;27;20259;-69
2022/04/05 12:06:22;;;;;;;9.73;4.53;;;12.00;99.90;;;;;;5103377;28;20547;-69
2022/04/05 12:08:50;;;;;;;11.50;4.90;;;11.90;99.90;;;;;;5098563;27;20212;-70
2022/04/05 12:11:18;;;;;;;11.10;4.47;;;11.70;99.90;;;;;;5106676;27;20211;-69
2022/04/05 12:13:57;;;;;;;15.90;6.38;;;11.60;99.90;;;;;;5107252;27;20227;-68
2022/04/05 12:16:27;;;;;;;9.38;4.32;;;11.80;99.90;;;;;;5100378;27;20280;-68
2022/04/05 12:18:55;;;;;;;9.20;4.35;;;11.80;99.90;;;;;;5117651;27;20220;-71
2022/04/05 12:21:24;;;;;;;10.10;5.15;;;11.70;99.90;;;;;;5102424;28;20195;-70
2022/04/05 12:23:52;;;;;;;15.77;4.95;;;11.60;99.90;;;;;;5109675;28;20226;-69
2022/04/05 12:26:21;;;;;;;12.07;5.63;;;11.50;99.90;;;;;;5104575;28;20286;-70
2022/04/05 12:28:50;;;;;;;8.68;4.53;;;11.40;99.90;;;;;;5108073;28;20301;-70
2022/04/05 12:31:19;;;;;;;10.65;4.72;;;11.40;99.90;;;;;;5102372;27;20204;-69
2022/04/05 12:34:02;;;;;;;7.53;4.10;;;11.30;99.90;;;;;;5101455;27;20600;-70
2022/04/05 12:36:34;;;;;;;7.72;4.93;;;11.20;99.90;;;;;;5080990;28;20532;-67
2022/04/05 12:39:02;;;;;;;13.00;5.00;;;11.20;99.90;;;;;;5100317;28;20238;-69
2022/04/05 12:41:30;;;;;;;10.52;5.55;;;11.30;99.90;;;;;;5101594;28;20211;-68
2022/04/05 12:44:19;;;;;;;7.80;4.25;;;11.30;99.90;;;;;;5094789;27;20221;-70
2022/04/05 12:46:50;;;;;;;6.35;4.00;;;11.20;99.90;;;;;;5105972;27;20214;-70
2022/04/05 12:49:24;;;;;;;10.07;4.72;;;11.30;99.90;;;;;;5109138;27;20202;-69
2022/04/05 12:51:52;;;;;;;5.43;4.30;;;11.10;99.90;;;;;;5089455;28;20220;-71
2022/04/05 12:54:31;;;;;;;8.57;4.90;;;11.00;99.90;;;;;;5104448;28;20217;-73
2022/04/05 12:57:20;;;;;;;12.27;6.10;;;10.90;99.90;;;;;;5105240;28;20297;-70
2022/04/05 12:59:49;;;;;;;8.75;5.10;;;10.80;99.90;;;;;;5103123;28;20863;-71